ヌーク の空港の天気 - METARとTAF

ヌーク空港 ( BGGH / GOH ) - グリーンランド ヌーク
飛行場実況気象(Metar)
観測時間10/22 09:50 WGST (10/22 11:50 UTC)
風向・風速東北東 5m/s
視程10km以上
天気現象
少しの雲 雲底高度 240m
気温-3℃
湿度80%
気圧1009hPa
METARBGGH 221150Z 07010KT 9999 FEW008 M03/M06 Q1009
過去の天気等 Google飛行場航空写真 Wunderground天気予報

過去48時間のMETAR

飛行場予報(TAF)
発表時間: 10/22 09:01 WGST (10/22 11:01 UTC)
予報対象時間: 22日10時 WGST ~ 22日19時 WGST
風向・風速東北東 4m/s
視程10km以上
全天の4割程度の雲 雲底高度 1220m
TAF BGGH 221101Z 2212/2221 06008KT 9999 SCT040